الصفحة الرئيسية
METAR-TAF:

METAR-TAF

مطار :

مدينة غواتيمالا, غواتيمالا

دائرة عرض: 14-35N, خط طول: 090-31W, ارتفاع: 1489 متر

مراقبة الطقس الحالي

تاريخ ووقت الإصدار 53 دقيقة قبل الساعة 12:00UTC
ريح 12 عقدة من الشمال
درجة الحرارة 13°درجة مئوية
الرطوبة 94%
ضغط 1025 hPa
الرؤية 10 كم أو أكثر
غيوم مفككة على ارتفاع 1200 قدم

METAR: MGGT 201200Z 36012KT 9999 BKN012 13/12 Q1025 A3027

زمن: 06:53 (12:53 UTC)

توقعات

تاريخ ووقت الإصدار 1ساعة و 53 دقيقة قبل الساعة 11:00UTC
التوقعات صالحة من20 الساعة 12 UTC إلى 21 الساعة 12 UTC
ريح 14 عقدة من الشمال
الرؤية 10 كم أو أكثر
غيوم متفرقة على ارتفاع 1600 قدم
أصبح
من 20 الساعة 15 UTC إلى 20 الساعة 17 UTC
ريح 12 عقدة من الشمال الشرقي
غيوم متفرقة على ارتفاع 2000 قدم
أصبح
من 21 الساعة 02 UTC إلى 21 الساعة 04 UTC
ريح 10 عقدة من الشمال
غيوم قليلة على ارتفاع 1600 قدم
أصبح
من 21 الساعة 10 UTC إلى 21 الساعة 12 UTC
غيوم مفككة على ارتفاع 1400 قدم

TAF: MGGT 201100Z 2012/2112 36014KT 9999 SCT016 TX22/2020Z TN11/2012Z BECMG 2015/2017 04012KT SCT020 BECMG 2102/2104 36010KT FEW016 BECMG 2110/2112 BKN014

أرصاد الطقس والتوقعات من أكثر من 4000 مطار (تقارير الطقس للمطار METAR والتنبؤ بالطقس بالمطارTAF).

المحطات المتاحة هي النقط الصفراء والحمراء على الخريطة.

حرك المؤشر فوق النقطة لمعرفة اسم المحطة.

ثم انقر لمعرفة أرصاد وتوقعات الطقس.

لتغيير الخارطة: اضغط على الأزرار الخضراء مع رمز الصليب الأسود للتكبير. على الزر الأخضر مع شرطة للتصغير، أو على الأسهم الخضراء للخرائط المجاورة.


METAR-TAF: